createdAt,value
2023-02-06T00:01:59.883Z,104298.22
2023-02-06T00:04:01.876Z,104300.72
2023-02-06T00:06:03.849Z,104302.53
2023-02-06T00:08:07.281Z,104304.44
2023-02-06T00:10:09.842Z,104307.28
2023-02-06T00:12:14.117Z,104306.63
2023-02-06T00:14:15.911Z,104312.00
2023-02-06T00:16:21.228Z,104314.63
2023-02-06T00:18:23.153Z,104310.91
2023-02-06T00:20:24.977Z,104317.31
2023-02-06T00:22:27.174Z,104318.53
2023-02-06T00:24:29.246Z,104320.31
2023-02-06T00:26:33.930Z,104311.88
2023-02-06T00:28:35.744Z,104314.91
2023-02-06T00:30:37.683Z,104314.75
2023-02-06T00:32:39.533Z,104313.09
2023-02-06T00:34:41.365Z,104305.78
2023-02-06T00:36:43.265Z,104298.97
2023-02-06T00:38:45.679Z,104288.09
2023-02-06T00:40:47.884Z,104293.63
2023-02-06T00:42:49.626Z,104288.09
2023-02-06T00:44:51.356Z,104287.84
2023-02-06T00:46:53.236Z,104297.47
2023-02-06T00:48:55.002Z,104299.13
2023-02-06T00:50:56.796Z,104298.16
2023-02-06T00:52:58.520Z,104307.63
2023-02-06T00:55:00.318Z,104306.09
2023-02-06T00:57:02.084Z,104307.44
2023-02-06T00:59:04.087Z,104302.31
2023-02-06T01:01:05.967Z,104292.06
2023-02-06T01:03:07.875Z,104296.56
2023-02-06T01:05:09.826Z,104296.69
2023-02-06T01:07:11.647Z,104291.50
2023-02-06T01:09:13.762Z,104290.41
2023-02-06T01:11:18.742Z,104289.00
2023-02-06T01:13:20.556Z,104288.59
2023-02-06T01:15:22.321Z,104297.19
2023-02-06T01:17:24.409Z,104292.06
2023-02-06T01:19:28.236Z,104289.69
2023-02-06T01:21:30.374Z,104284.56
2023-02-06T01:23:32.187Z,104285.59
2023-02-06T01:25:34.373Z,104294.81
2023-02-06T01:27:37.817Z,104292.13
2023-02-06T01:29:39.603Z,104285.75
2023-02-06T01:31:43.814Z,104282.19
2023-02-06T01:33:46.663Z,104280.72
2023-02-06T01:35:55.508Z,104282.78
2023-02-06T01:37:57.489Z,104274.31
2023-02-06T01:39:59.243Z,104280.84
2023-02-06T01:42:01.037Z,104275.34
2023-02-06T01:44:13.873Z,104272.03
2023-02-06T01:46:15.785Z,104279.44
2023-02-06T01:48:22.205Z,104283.53
2023-02-06T01:50:24.188Z,104268.69
2023-02-06T01:52:30.485Z,104265.88
2023-02-06T01:54:35.192Z,104262.22
2023-02-06T01:56:43.675Z,104264.66
2023-02-06T01:58:51.831Z,104280.28
2023-02-06T02:00:57.920Z,104275.91
2023-02-06T02:03:01.304Z,104263.38
2023-02-06T02:05:05.812Z,104264.56
2023-02-06T02:07:15.566Z,104271.69
2023-02-06T02:09:18.802Z,104269.69
2023-02-06T02:11:25.530Z,104270.31
2023-02-06T02:13:27.580Z,104270.59
2023-02-06T02:15:40.097Z,104265.34
2023-02-06T02:17:48.891Z,104258.81
2023-02-06T02:19:55.168Z,104256.72
2023-02-06T02:22:01.460Z,104254.94
2023-02-06T02:24:09.494Z,104261.50
2023-02-06T02:26:30.033Z,104272.88
2023-02-06T02:28:35.452Z,104267.91
2023-02-06T02:30:42.257Z,104267.13
2023-02-06T02:32:51.010Z,104259.72
2023-02-06T02:35:03.147Z,104260.63
2023-02-06T02:37:11.144Z,104261.53
2023-02-06T02:39:16.862Z,104257.56
2023-02-06T02:41:27.486Z,104258.69
2023-02-06T02:43:35.451Z,104249.47
2023-02-06T02:45:44.036Z,104255.22
2023-02-06T02:47:56.206Z,104256.47
2023-02-06T02:50:02.873Z,104254.28
2023-02-06T02:52:05.343Z,104243.81
2023-02-06T02:54:09.799Z,104247.66
2023-02-06T02:56:17.893Z,104245.16
2023-02-06T02:58:23.678Z,104239.06
2023-02-06T03:00:26.661Z,104241.63
2023-02-06T03:02:33.869Z,104244.31
2023-02-06T03:04:42.654Z,104235.03
2023-02-06T03:06:58.847Z,104232.38
2023-02-06T03:09:09.218Z,104241.03
2023-02-06T03:11:16.875Z,104244.41
2023-02-06T03:13:24.619Z,104225.44
2023-02-06T03:15:27.143Z,104220.34
2023-02-06T03:17:34.698Z,104217.00
2023-02-06T03:19:44.447Z,104225.00
2023-02-06T03:21:48.415Z,104226.84
2023-02-06T03:23:54.735Z,104233.00
2023-02-06T03:26:00.886Z,104217.81
2023-02-06T03:28:07.675Z,104217.22
2023-02-06T03:30:14.083Z,104215.22
2023-02-06T03:32:24.354Z,104219.78
2023-02-06T03:34:32.209Z,104216.09
2023-02-06T03:36:34.375Z,104210.78
2023-02-06T03:38:36.211Z,104200.69
2023-02-06T03:40:40.983Z,104207.97
2023-02-06T03:42:48.736Z,104208.66
2023-02-06T03:44:57.575Z,104212.50
2023-02-06T03:47:00.939Z,104212.31
2023-02-06T03:49:07.434Z,104204.97
2023-02-06T03:51:18.143Z,104193.19
2023-02-06T03:53:22.461Z,104188.16
2023-02-06T03:55:25.760Z,104195.69
2023-02-06T03:57:30.010Z,104203.63
2023-02-06T03:59:33.229Z,104199.81
2023-02-06T04:01:40.307Z,104194.88
2023-02-06T04:03:42.165Z,104195.78
2023-02-06T04:05:44.014Z,104213.25
2023-02-06T04:07:46.059Z,104201.75
2023-02-06T04:09:48.170Z,104203.69
2023-02-06T04:11:50.562Z,104199.69
2023-02-06T04:13:54.351Z,104201.75
2023-02-06T04:15:56.567Z,104195.56
2023-02-06T04:18:01.117Z,104195.09
2023-02-06T04:20:05.391Z,104204.16
2023-02-06T04:22:08.676Z,104215.75
2023-02-06T04:24:12.666Z,104214.72
2023-02-06T04:26:14.515Z,104216.38
2023-02-06T04:28:16.367Z,104202.06
2023-02-06T04:30:18.570Z,104196.06
2023-02-06T04:32:21.084Z,104192.72
2023-02-06T04:34:23.021Z,104198.28
2023-02-06T04:36:24.774Z,104206.16
2023-02-06T04:38:26.877Z,104203.44
2023-02-06T04:40:31.645Z,104201.38
2023-02-06T04:42:33.411Z,104204.50
2023-02-06T04:44:35.350Z,104200.56
2023-02-06T04:46:37.172Z,104197.13
2023-02-06T04:48:39.381Z,104194.75
2023-02-06T04:50:41.209Z,104193.69
2023-02-06T04:52:45.295Z,104192.19
2023-02-06T04:54:47.322Z,104190.00
2023-02-06T04:56:49.266Z,104188.38
2023-02-06T04:58:51.549Z,104175.06
2023-02-06T05:00:53.328Z,104171.94
2023-02-06T05:02:55.100Z,104175.81
2023-02-06T05:04:56.920Z,104171.41
2023-02-06T05:06:58.708Z,104168.75
2023-02-06T05:09:00.780Z,104168.38
2023-02-06T05:11:04.101Z,104174.09
2023-02-06T05:13:06.360Z,104175.97
2023-02-06T05:15:09.147Z,104168.69
2023-02-06T05:17:10.969Z,104177.56
2023-02-06T05:19:12.875Z,104169.50
2023-02-06T05:21:15.415Z,104161.84
2023-02-06T05:23:19.379Z,104164.84
2023-02-06T05:25:21.202Z,104168.13
2023-02-06T05:27:23.063Z,104171.31
2023-02-06T05:29:26.097Z,104166.47
2023-02-06T05:31:27.983Z,104160.13
2023-02-06T05:33:30.655Z,104154.59
2023-02-06T05:35:32.483Z,104159.50
2023-02-06T05:37:34.250Z,104162.06
2023-02-06T05:39:36.140Z,104162.63
2023-02-06T05:41:37.945Z,104162.91
2023-02-06T05:43:39.793Z,104155.34
2023-02-06T05:45:43.961Z,104154.13
2023-02-06T05:47:45.766Z,104146.56
2023-02-06T05:49:48.409Z,104145.69
2023-02-06T05:51:50.238Z,104147.22
2023-02-06T05:53:54.288Z,104151.06
2023-02-06T05:55:56.979Z,104142.00
2023-02-06T05:57:58.968Z,104138.06
2023-02-06T06:00:00.806Z,104138.06
2023-02-06T06:02:03.149Z,104144.63
2023-02-06T06:04:05.149Z,104150.59
2023-02-06T06:06:10.040Z,104144.78
2023-02-06T06:08:16.266Z,104130.78
2023-02-06T06:10:18.431Z,104122.31
2023-02-06T06:12:20.281Z,104117.97
2023-02-06T06:14:22.157Z,104120.72
2023-02-06T06:16:23.946Z,104129.13
2023-02-06T06:18:26.881Z,104135.63
2023-02-06T06:20:29.945Z,104129.75
2023-02-06T06:22:31.820Z,104128.91
2023-02-06T06:24:34.017Z,104137.50
2023-02-06T06:26:36.417Z,104137.88
2023-02-06T06:28:39.144Z,104136.41
2023-02-06T06:30:41.641Z,104140.00
2023-02-06T06:32:43.492Z,104140.22
2023-02-06T06:34:45.296Z,104129.69
2023-02-06T06:36:47.301Z,104134.81
2023-02-06T06:38:49.170Z,104126.03
2023-02-06T06:40:51.993Z,104131.22
2023-02-06T06:42:57.091Z,104134.41
2023-02-06T06:44:59.025Z,104125.38
2023-02-06T06:47:00.835Z,104118.09
2023-02-06T06:49:02.691Z,104115.66
2023-02-06T06:51:06.370Z,104114.41
2023-02-06T06:53:08.231Z,104120.22
2023-02-06T06:55:11.006Z,104127.75
2023-02-06T06:57:13.295Z,104121.25
2023-02-06T06:59:15.394Z,104118.28
2023-02-06T07:01:19.320Z,104110.47
2023-02-06T07:03:23.913Z,104114.47
2023-02-06T07:05:26.048Z,104114.88
2023-02-06T07:07:27.865Z,104113.44
2023-02-06T07:09:30.135Z,104119.88
2023-02-06T07:11:32.086Z,104120.34
2023-02-06T07:13:36.453Z,104114.06
2023-02-06T07:15:38.490Z,104109.47
2023-02-06T07:17:40.512Z,104107.28
2023-02-06T07:19:42.390Z,104093.66
2023-02-06T07:21:44.425Z,104097.16
2023-02-06T07:23:46.554Z,104099.28
2023-02-06T07:25:51.141Z,104103.94
2023-02-06T07:27:52.936Z,104101.88
2023-02-06T07:29:54.802Z,104103.69
2023-02-06T07:31:57.138Z,104101.44
2023-02-06T07:34:00.002Z,104106.31
2023-02-06T07:36:04.035Z,104101.75
2023-02-06T07:38:06.173Z,104100.09
2023-02-06T07:40:09.291Z,104101.13
2023-02-06T07:42:12.436Z,104089.22
2023-02-06T07:44:14.741Z,104085.41
2023-02-06T07:46:16.800Z,104085.00
2023-02-06T07:48:18.846Z,104083.84
2023-02-06T07:50:21.206Z,104081.56
2023-02-06T07:52:23.196Z,104082.56
2023-02-06T07:54:25.006Z,104082.56
2023-02-06T07:56:27.157Z,104084.88
2023-02-06T07:58:29.051Z,104089.22
2023-02-06T08:00:31.004Z,104088.19
2023-02-06T08:02:33.061Z,104084.88
2023-02-06T08:04:37.309Z,104079.44
2023-02-06T08:06:43.160Z,104074.69
2023-02-06T08:08:45.691Z,104082.88
2023-02-06T08:10:48.192Z,104085.75
2023-02-06T08:12:50.150Z,104080.25
2023-02-06T08:14:52.086Z,104073.88
2023-02-06T08:16:54.389Z,104081.47
2023-02-06T08:18:56.442Z,104093.63
2023-02-06T08:21:04.101Z,104077.88
2023-02-06T08:23:08.115Z,104098.75
2023-02-06T08:25:10.115Z,104089.28
2023-02-06T08:27:12.364Z,104094.75
2023-02-06T08:29:14.609Z,104089.50
2023-02-06T08:31:21.769Z,104089.00
2023-02-06T08:33:24.730Z,104088.63
2023-02-06T08:35:26.830Z,104089.72
2023-02-06T08:37:29.068Z,104086.66
2023-02-06T08:39:31.288Z,104091.16
2023-02-06T08:41:37.417Z,104086.34
2023-02-06T08:43:39.561Z,104083.34
2023-02-06T08:45:44.646Z,104092.25
2023-02-06T08:47:46.730Z,104096.00
2023-02-06T08:49:51.210Z,104103.41
2023-02-06T08:51:54.218Z,104095.38
2023-02-06T08:53:59.105Z,104099.88
2023-02-06T08:56:03.801Z,104096.56
2023-02-06T08:58:06.261Z,104096.56
2023-02-06T09:00:09.273Z,104098.69
2023-02-06T09:02:11.819Z,104098.56
2023-02-06T09:04:14.953Z,104101.38
2023-02-06T09:06:16.995Z,104110.84
2023-02-06T09:08:19.103Z,104115.69
2023-02-06T09:10:27.364Z,104111.66
2023-02-06T09:12:30.094Z,104114.84
2023-02-06T09:14:32.525Z,104110.28
2023-02-06T09:16:37.781Z,104109.19
2023-02-06T09:18:40.701Z,104102.09
2023-02-06T09:20:42.725Z,104102.97
2023-02-06T09:22:45.027Z,104103.00
2023-02-06T09:24:46.914Z,104101.75
2023-02-06T09:27:04.009Z,104104.63
2023-02-06T09:29:08.411Z,104105.97
2023-02-06T09:31:11.402Z,104108.72
2023-02-06T09:33:13.507Z,104094.69
2023-02-06T09:35:17.891Z,104097.66
2023-02-06T09:37:19.754Z,104102.84
2023-02-06T09:39:24.404Z,104107.06
2023-02-06T09:41:28.278Z,104093.84
2023-02-06T09:43:32.339Z,104096.59
2023-02-06T09:45:36.909Z,104093.44
2023-02-06T09:47:47.375Z,104097.25
2023-02-06T09:49:53.684Z,104100.63
2023-02-06T09:52:05.182Z,104093.00
2023-02-06T09:54:09.179Z,104095.91
2023-02-06T09:56:15.639Z,104089.81
2023-02-06T09:58:23.833Z,104095.50
2023-02-06T10:00:29.098Z,104100.88
2023-02-06T10:02:46.489Z,104096.06
2023-02-06T10:04:58.203Z,104104.34
2023-02-06T10:07:14.051Z,104098.13
2023-02-06T10:09:19.194Z,104103.59
2023-02-06T10:11:27.483Z,104110.03
2023-02-06T10:13:36.174Z,104106.66
2023-02-06T10:15:46.583Z,104100.97
2023-02-06T10:17:55.419Z,104112.78
2023-02-06T10:20:03.859Z,104116.03
2023-02-06T10:22:13.821Z,104114.84
2023-02-06T10:24:19.233Z,104105.22
2023-02-06T10:26:23.054Z,104111.47
2023-02-06T10:28:28.582Z,104119.34
2023-02-06T10:30:51.453Z,104118.72
2023-02-06T10:33:01.788Z,104106.56
2023-02-06T10:35:14.690Z,104102.53
2023-02-06T10:37:27.741Z,104105.81
2023-02-06T10:39:33.104Z,104098.53
2023-02-06T10:41:39.553Z,104104.56
2023-02-06T10:43:48.160Z,104095.25
2023-02-06T10:46:00.064Z,104094.88
2023-02-06T10:48:11.102Z,104094.88
2023-02-06T10:50:19.496Z,104095.13
2023-02-06T10:52:25.149Z,104088.59
2023-02-06T10:54:31.521Z,104083.22
2023-02-06T10:56:40.408Z,104091.47
2023-02-06T10:58:52.331Z,104087.84
2023-02-06T11:00:56.365Z,104082.47
2023-02-06T11:03:07.514Z,104082.09
2023-02-06T11:05:16.321Z,104073.88
2023-02-06T11:07:25.247Z,104077.34
2023-02-06T11:09:27.667Z,104079.13
2023-02-06T11:11:33.611Z,104074.53
2023-02-06T11:13:38.669Z,104068.50
2023-02-06T11:15:47.149Z,104065.94
2023-02-06T11:17:51.730Z,104059.72
2023-02-06T11:19:56.760Z,104045.28
2023-02-06T11:22:02.362Z,104042.31
2023-02-06T11:24:10.442Z,104040.28
2023-02-06T11:26:17.020Z,104029.78
2023-02-06T11:28:21.246Z,104026.28
2023-02-06T11:30:25.163Z,104025.59
2023-02-06T11:32:35.990Z,104019.47
2023-02-06T11:34:41.206Z,104016.59
2023-02-06T11:36:43.268Z,104017.56
2023-02-06T11:38:56.441Z,104011.91
2023-02-06T11:41:04.547Z,104021.41
2023-02-06T11:43:18.221Z,104013.06
2023-02-06T11:45:26.458Z,104007.84
2023-02-06T11:47:37.401Z,104004.19
2023-02-06T11:49:39.840Z,104003.50
2023-02-06T11:51:46.182Z,103996.97
2023-02-06T11:53:54.761Z,103997.97
2023-02-06T11:56:00.305Z,103998.22
2023-02-06T11:58:07.923Z,103983.25
2023-02-06T12:00:15.975Z,103978.41
2023-02-06T12:02:25.467Z,103981.88
2023-02-06T12:04:35.153Z,103979.00
2023-02-06T12:06:40.487Z,103973.16
2023-02-06T12:08:49.001Z,103965.13
2023-02-06T12:10:58.587Z,103962.75
2023-02-06T12:13:08.516Z,103970.50
2023-02-06T12:15:39.951Z,103958.41
2023-02-06T12:17:44.103Z,103959.41
2023-02-06T12:20:00.807Z,103950.66
2023-02-06T12:22:12.526Z,103944.38
2023-02-06T12:24:20.732Z,103948.97
2023-02-06T12:26:27.165Z,103947.53
2023-02-06T12:28:35.347Z,103944.38
2023-02-06T12:30:43.664Z,103943.53
2023-02-06T12:32:51.168Z,103939.81
2023-02-06T12:35:00.933Z,103941.38
2023-02-06T12:37:15.965Z,103940.22
2023-02-06T12:39:22.084Z,103937.34
2023-02-06T12:41:28.536Z,103930.19
2023-02-06T12:43:34.604Z,103927.88
2023-02-06T12:45:42.770Z,103919.34
2023-02-06T12:47:53.552Z,103921.34
2023-02-06T12:50:00.900Z,103909.75
2023-02-06T12:52:14.458Z,103897.38
2023-02-06T12:54:23.279Z,103899.34
2023-02-06T12:56:28.354Z,103895.47
2023-02-06T12:58:36.686Z,103893.69
2023-02-06T13:00:49.274Z,103889.94
2023-02-06T13:02:57.468Z,103890.13
2023-02-06T13:05:04.013Z,103888.88
2023-02-06T13:07:08.681Z,103882.72
2023-02-06T13:09:22.995Z,103879.97
2023-02-06T13:11:30.098Z,103874.47
2023-02-06T13:13:36.862Z,103876.59
2023-02-06T13:15:41.548Z,103867.25
2023-02-06T13:17:44.958Z,103862.19
2023-02-06T13:19:47.636Z,103862.47
2023-02-06T13:21:53.625Z,103865.56
2023-02-06T13:24:02.001Z,103855.16
2023-02-06T13:26:06.631Z,103858.44
2023-02-06T13:28:14.818Z,103856.25
2023-02-06T13:30:39.712Z,103846.03
2023-02-06T13:32:45.116Z,103849.31
2023-02-06T13:34:50.745Z,103840.75
2023-02-06T13:36:53.501Z,103835.59
2023-02-06T13:38:57.450Z,103832.81
2023-02-06T13:41:05.662Z,103830.91
2023-02-06T13:43:10.348Z,103833.88
2023-02-06T13:45:19.950Z,103834.53
2023-02-06T13:47:32.055Z,103820.09
2023-02-06T13:49:40.142Z,103824.22
2023-02-06T13:51:48.514Z,103812.28
2023-02-06T13:53:56.702Z,103821.91
2023-02-06T13:56:02.044Z,103813.75
2023-02-06T13:58:07.396Z,103815.34
2023-02-06T14:00:13.421Z,103809.78
2023-02-06T14:02:23.497Z,103808.75
2023-02-06T14:04:28.616Z,103804.88
2023-02-06T14:06:34.487Z,103809.03
2023-02-06T14:08:41.335Z,103801.00
2023-02-06T14:10:52.517Z,103800.59
2023-02-06T14:13:03.846Z,103788.63
2023-02-06T14:15:12.720Z,103784.91
2023-02-06T14:17:15.544Z,103781.88
2023-02-06T14:19:20.170Z,103781.00
2023-02-06T14:21:32.163Z,103780.63
2023-02-06T14:23:37.661Z,103786.94
2023-02-06T14:25:43.960Z,103777.88
2023-02-06T14:27:50.388Z,103780.00
2023-02-06T14:30:03.320Z,103773.19
2023-02-06T14:32:17.449Z,103772.69
2023-02-06T14:34:23.195Z,103773.22
2023-02-06T14:36:37.476Z,103768.19
2023-02-06T14:38:48.540Z,103763.97
2023-02-06T14:40:54.060Z,103766.00
2023-02-06T14:42:58.698Z,103770.19
2023-02-06T14:45:05.021Z,103770.53
2023-02-06T14:47:13.137Z,103766.44
2023-02-06T14:49:20.751Z,103760.53
2023-02-06T14:51:27.381Z,103755.97
2023-02-06T14:53:35.266Z,103755.50
2023-02-06T14:55:40.462Z,103756.75
2023-02-06T14:57:45.538Z,103747.28
2023-02-06T14:59:53.592Z,103753.72
2023-02-06T15:01:57.358Z,103758.34
2023-02-06T15:04:05.397Z,103754.88
2023-02-06T15:06:11.127Z,103748.91
2023-02-06T15:08:17.849Z,103749.44
2023-02-06T15:10:30.445Z,103746.84
2023-02-06T15:12:32.701Z,103752.69
2023-02-06T15:14:35.518Z,103752.31
2023-02-06T15:16:43.650Z,103747.22
2023-02-06T15:18:45.763Z,103737.44
2023-02-06T15:20:58.430Z,103738.56
2023-02-06T15:23:17.652Z,103735.59
2023-02-06T15:25:24.458Z,103739.41
2023-02-06T15:27:32.333Z,103732.66
2023-02-06T15:29:34.323Z,103735.91
2023-02-06T15:31:36.655Z,103726.81
2023-02-06T15:33:41.222Z,103715.28
2023-02-06T15:35:50.180Z,103723.88
2023-02-06T15:37:53.730Z,103718.16
2023-02-06T15:40:00.176Z,103718.16
2023-02-06T15:42:02.232Z,103715.84
2023-02-06T15:44:12.582Z,103716.47
2023-02-06T15:46:15.632Z,103720.34
2023-02-06T15:48:23.725Z,103712.00
2023-02-06T15:50:28.027Z,103709.56
2023-02-06T15:52:35.681Z,103707.16
2023-02-06T15:54:40.378Z,103718.13
2023-02-06T15:56:44.095Z,103723.47
2023-02-06T15:58:48.243Z,103719.81
2023-02-06T16:00:54.430Z,103720.16
2023-02-06T16:03:03.428Z,103716.34
2023-02-06T16:05:07.412Z,103707.22
2023-02-06T16:07:15.649Z,103710.31
2023-02-06T16:09:21.936Z,103712.47
2023-02-06T16:11:34.312Z,103715.56
2023-02-06T16:13:36.784Z,103706.44
2023-02-06T16:15:40.675Z,103705.47
2023-02-06T16:17:42.841Z,103704.09
2023-02-06T16:19:48.609Z,103713.53
2023-02-06T16:22:06.449Z,103712.72
2023-02-06T16:24:16.537Z,103707.31
2023-02-06T16:26:21.359Z,103702.53
2023-02-06T16:28:27.260Z,103700.41
2023-02-06T16:30:34.787Z,103692.28
2023-02-06T16:32:37.138Z,103693.25
2023-02-06T16:34:41.781Z,103692.34
2023-02-06T16:36:44.177Z,103692.66
2023-02-06T16:38:54.111Z,103688.41
2023-02-06T16:41:04.001Z,103691.88
2023-02-06T16:43:11.218Z,103691.56
2023-02-06T16:45:16.755Z,103692.94
2023-02-06T16:47:23.221Z,103692.28
2023-02-06T16:49:25.120Z,103684.75
2023-02-06T16:51:30.605Z,103686.00
2023-02-06T16:53:32.715Z,103683.47
2023-02-06T16:55:34.708Z,103698.94
2023-02-06T16:57:42.185Z,103696.97
2023-02-06T16:59:46.478Z,103700.03
2023-02-06T17:01:48.797Z,103705.81
2023-02-06T17:03:52.670Z,103706.59
2023-02-06T17:05:54.778Z,103710.38
2023-02-06T17:07:57.258Z,103700.97
2023-02-06T17:09:59.778Z,103702.75
2023-02-06T17:12:03.836Z,103704.44
2023-02-06T17:14:06.332Z,103701.84
2023-02-06T17:16:17.216Z,103704.44
2023-02-06T17:18:21.954Z,103697.50
2023-02-06T17:20:30.997Z,103694.41
2023-02-06T17:22:35.283Z,103697.69
2023-02-06T17:24:37.486Z,103695.78
2023-02-06T17:26:39.744Z,103692.41
2023-02-06T17:28:41.742Z,103692.13
2023-02-06T17:30:45.090Z,103687.94
2023-02-06T17:32:47.244Z,103689.25
2023-02-06T17:34:50.919Z,103693.09
2023-02-06T17:36:54.823Z,103693.19
2023-02-06T17:38:59.025Z,103692.91
2023-02-06T17:41:01.063Z,103695.25
2023-02-06T17:43:04.750Z,103695.06
2023-02-06T17:45:07.595Z,103689.81
2023-02-06T17:47:09.874Z,103690.50
2023-02-06T17:49:12.837Z,103687.69
2023-02-06T17:51:15.481Z,103689.28
2023-02-06T17:53:18.436Z,103688.41
2023-02-06T17:55:23.167Z,103690.97
2023-02-06T17:57:25.446Z,103692.66
2023-02-06T17:59:27.883Z,103689.09
2023-02-06T18:01:30.631Z,103688.91
2023-02-06T18:03:34.606Z,103690.47
2023-02-06T18:05:38.017Z,103677.38
2023-02-06T18:07:40.804Z,103682.34
2023-02-06T18:09:47.741Z,103672.59
2023-02-06T18:11:49.722Z,103679.56
2023-02-06T18:13:51.816Z,103680.03
2023-02-06T18:15:56.359Z,103670.63
2023-02-06T18:17:59.705Z,103667.06
2023-02-06T18:20:01.783Z,103670.88
2023-02-06T18:22:03.886Z,103671.59
2023-02-06T18:24:07.265Z,103671.69
2023-02-06T18:26:10.195Z,103664.66
2023-02-06T18:28:15.394Z,103659.50
2023-02-06T18:30:17.459Z,103670.69
2023-02-06T18:32:20.106Z,103664.56
2023-02-06T18:34:22.165Z,103667.13
2023-02-06T18:36:24.791Z,103662.72
2023-02-06T18:38:26.702Z,103659.03
2023-02-06T18:40:28.621Z,103659.72
2023-02-06T18:42:34.036Z,103656.34
2023-02-06T18:44:41.779Z,103665.78
2023-02-06T18:46:43.880Z,103660.88
2023-02-06T18:48:45.904Z,103657.75
2023-02-06T18:50:47.796Z,103660.41
2023-02-06T18:52:50.379Z,103672.31
2023-02-06T18:54:52.436Z,103673.56
2023-02-06T18:56:54.840Z,103678.59
2023-02-06T18:58:57.160Z,103674.44
2023-02-06T19:00:59.310Z,103686.31
2023-02-06T19:03:02.512Z,103683.75
2023-02-06T19:05:05.120Z,103692.97
2023-02-06T19:07:09.244Z,103697.88
2023-02-06T19:09:13.192Z,103693.41
2023-02-06T19:11:15.619Z,103692.31
2023-02-06T19:13:17.534Z,103697.22
2023-02-06T19:15:20.072Z,103694.44
2023-02-06T19:17:22.921Z,103697.91
2023-02-06T19:19:24.910Z,103693.19
2023-02-06T19:21:28.282Z,103694.09
2023-02-06T19:23:30.241Z,103694.09
2023-02-06T19:25:32.271Z,103700.81
2023-02-06T19:27:34.157Z,103696.78
2023-02-06T19:29:36.786Z,103686.56
2023-02-06T19:31:40.672Z,103687.47
2023-02-06T19:33:42.641Z,103688.16
2023-02-06T19:35:44.641Z,103690.03
2023-02-06T19:37:46.674Z,103697.31
2023-02-06T19:39:48.594Z,103691.38
2023-02-06T19:41:50.476Z,103692.72
2023-02-06T19:43:54.102Z,103695.69
2023-02-06T19:45:56.326Z,103695.78
2023-02-06T19:47:58.284Z,103694.00
2023-02-06T19:50:00.180Z,103694.00
2023-02-06T19:52:02.564Z,103697.31
2023-02-06T19:54:05.285Z,103686.03
2023-02-06T19:56:07.810Z,103694.97
2023-02-06T19:58:09.940Z,103698.81
2023-02-06T20:00:15.643Z,103692.75
2023-02-06T20:02:17.556Z,103695.44
2023-02-06T20:04:22.909Z,103690.09
2023-02-06T20:06:25.639Z,103692.56
2023-02-06T20:08:28.078Z,103689.00
2023-02-06T20:10:30.446Z,103684.84
2023-02-06T20:12:32.398Z,103686.41
2023-02-06T20:14:34.221Z,103688.75
2023-02-06T20:16:39.374Z,103692.03
2023-02-06T20:18:41.307Z,103686.69
2023-02-06T20:20:43.203Z,103690.06
2023-02-06T20:22:45.516Z,103691.69
2023-02-06T20:24:47.322Z,103692.75
2023-02-06T20:26:55.350Z,103689.41
2023-02-06T20:29:00.743Z,103679.00
2023-02-06T20:31:09.556Z,103671.16
2023-02-06T20:33:12.444Z,103664.03
2023-02-06T20:35:14.299Z,103677.47
2023-02-06T20:37:17.725Z,103680.13
2023-02-06T20:39:20.290Z,103681.81
2023-02-06T20:41:24.434Z,103677.47
2023-02-06T20:43:26.528Z,103686.41
2023-02-06T20:45:28.541Z,103682.59
2023-02-06T20:47:31.029Z,103679.69
2023-02-06T20:49:32.878Z,103682.28
2023-02-06T20:51:35.310Z,103682.28
2023-02-06T20:53:37.187Z,103668.22
2023-02-06T20:55:44.377Z,103678.81
2023-02-06T20:57:46.277Z,103680.38
2023-02-06T20:59:48.131Z,103674.34
2023-02-06T21:01:50.356Z,103677.56
2023-02-06T21:03:55.803Z,103678.34
2023-02-06T21:05:59.320Z,103669.75
2023-02-06T21:08:01.338Z,103678.81
2023-02-06T21:10:04.399Z,103682.59
2023-02-06T21:12:06.451Z,103680.59
2023-02-06T21:14:09.329Z,103683.06
2023-02-06T21:16:13.629Z,103683.59
2023-02-06T21:18:18.499Z,103686.06
2023-02-06T21:20:20.496Z,103687.97
2023-02-06T21:22:22.342Z,103687.97
2023-02-06T21:24:24.517Z,103682.59
2023-02-06T21:26:27.785Z,103682.28
2023-02-06T21:28:30.411Z,103686.53
2023-02-06T21:30:32.793Z,103681.16
2023-02-06T21:32:34.604Z,103696.44
2023-02-06T21:34:36.520Z,103694.66
2023-02-06T21:36:39.687Z,103701.56
2023-02-06T21:38:42.305Z,103689.34
2023-02-06T21:40:45.296Z,103699.25
2023-02-06T21:42:47.130Z,103691.91
2023-02-06T21:44:49.189Z,103687.41
2023-02-06T21:46:51.344Z,103691.22
2023-02-06T21:48:54.157Z,103681.34
2023-02-06T21:50:56.955Z,103686.41
2023-02-06T21:52:59.177Z,103688.91
2023-02-06T21:55:01.110Z,103691.38
2023-02-06T21:57:02.935Z,103681.34
2023-02-06T21:59:06.524Z,103684.28
2023-02-06T22:01:14.353Z,103682.09
2023-02-06T22:03:16.257Z,103694.44
2023-02-06T22:05:18.386Z,103689.75
2023-02-06T22:07:20.296Z,103694.38
2023-02-06T22:09:25.152Z,103693.72
2023-02-06T22:11:28.789Z,103695.66
2023-02-06T22:13:33.271Z,103692.78
2023-02-06T22:15:35.746Z,103692.84
2023-02-06T22:17:37.845Z,103687.13
2023-02-06T22:19:40.161Z,103697.41
2023-02-06T22:21:42.050Z,103703.31
2023-02-06T22:23:45.312Z,103699.84
2023-02-06T22:25:48.083Z,103703.75
2023-02-06T22:27:50.011Z,103698.84
2023-02-06T22:29:54.826Z,103702.91
2023-02-06T22:31:56.664Z,103701.06
2023-02-06T22:34:00.643Z,103693.34
2023-02-06T22:36:05.585Z,103695.00
2023-02-06T22:38:07.458Z,103697.84
2023-02-06T22:40:12.556Z,103698.94
2023-02-06T22:42:14.395Z,103698.19
2023-02-06T22:44:18.272Z,103701.56
2023-02-06T22:46:28.185Z,103704.78
2023-02-06T22:48:30.190Z,103700.44
2023-02-06T22:50:32.305Z,103700.66
2023-02-06T22:52:37.279Z,103707.75
2023-02-06T22:54:39.479Z,103713.53
2023-02-06T22:56:43.785Z,103707.88
2023-02-06T22:58:46.956Z,103704.06
2023-02-06T23:00:49.360Z,103697.88
2023-02-06T23:02:52.102Z,103706.97
2023-02-06T23:04:54.539Z,103704.69
2023-02-06T23:06:57.341Z,103699.19
2023-02-06T23:09:00.671Z,103697.13
2023-02-06T23:11:03.714Z,103690.06
2023-02-06T23:13:05.734Z,103696.84
2023-02-06T23:15:10.500Z,103702.75
2023-02-06T23:17:12.903Z,103692.75
2023-02-06T23:19:16.246Z,103694.31
2023-02-06T23:21:20.968Z,103685.97
2023-02-06T23:23:23.882Z,103681.97
2023-02-06T23:25:25.994Z,103681.28
2023-02-06T23:27:29.495Z,103682.78
2023-02-06T23:29:31.627Z,103698.28
2023-02-06T23:31:34.279Z,103694.34
2023-02-06T23:33:37.386Z,103692.25
2023-02-06T23:35:40.489Z,103695.59
2023-02-06T23:37:42.981Z,103694.84
2023-02-06T23:39:45.206Z,103686.66
2023-02-06T23:41:47.140Z,103696.66
2023-02-06T23:43:55.058Z,103691.38